sensor_id;sensor_type;location;lat;lon;timestamp;temperature;humidity
16305;DHT22;8261;47.678;-122.174;2022-07-23T00:02:14;25.40;99.90
16305;DHT22;8261;47.678;-122.174;2022-07-23T00:04:50;25.20;99.90
16305;DHT22;8261;47.678;-122.174;2022-07-23T00:12:40;24.80;99.90
16305;DHT22;8261;47.678;-122.174;2022-07-23T00:15:22;25.10;99.90
16305;DHT22;8261;47.678;-122.174;2022-07-23T00:17:53;25.20;99.90
16305;DHT22;8261;47.678;-122.174;2022-07-23T00:20:29;25.00;99.90
16305;DHT22;8261;47.678;-122.174;2022-07-23T00:23:02;25.00;99.90
16305;DHT22;8261;47.678;-122.174;2022-07-23T00:25:35;24.70;99.90
16305;DHT22;8261;47.678;-122.174;2022-07-23T00:28:09;25.00;99.90
16305;DHT22;8261;47.678;-122.174;2022-07-23T00:30:46;24.70;99.90
16305;DHT22;8261;47.678;-122.174;2022-07-23T00:33:24;24.80;99.90
16305;DHT22;8261;47.678;-122.174;2022-07-23T00:35:56;24.90;99.90
16305;DHT22;8261;47.678;-122.174;2022-07-23T00:38:28;24.90;99.90
16305;DHT22;8261;47.678;-122.174;2022-07-23T00:41:00;24.80;99.90
16305;DHT22;8261;47.678;-122.174;2022-07-23T00:43:32;25.10;99.90
16305;DHT22;8261;47.678;-122.174;2022-07-23T00:46:05;25.20;99.90
16305;DHT22;8261;47.678;-122.174;2022-07-23T00:48:37;25.30;99.90
16305;DHT22;8261;47.678;-122.174;2022-07-23T00:51:09;25.00;99.90
16305;DHT22;8261;47.678;-122.174;2022-07-23T00:53:40;25.20;99.90
16305;DHT22;8261;47.678;-122.174;2022-07-23T00:56:12;25.10;99.90
16305;DHT22;8261;47.678;-122.174;2022-07-23T00:58:52;24.90;99.90
16305;DHT22;8261;47.678;-122.174;2022-07-23T01:01:25;25.10;99.90
16305;DHT22;8261;47.678;-122.174;2022-07-23T01:03:56;25.40;99.90
16305;DHT22;8261;47.678;-122.174;2022-07-23T01:06:28;25.50;99.90
16305;DHT22;8261;47.678;-122.174;2022-07-23T01:08:59;25.90;99.90
16305;DHT22;8261;47.678;-122.174;2022-07-23T01:11:32;26.00;99.90
16305;DHT22;8261;47.678;-122.174;2022-07-23T01:14:11;26.40;99.90
16305;DHT22;8261;47.678;-122.174;2022-07-23T01:16:49;26.40;99.90
16305;DHT22;8261;47.678;-122.174;2022-07-23T01:19:21;27.40;99.90
16305;DHT22;8261;47.678;-122.174;2022-07-23T01:21:58;27.90;99.90
16305;DHT22;8261;47.678;-122.174;2022-07-23T01:24:31;28.10;99.90
16305;DHT22;8261;47.678;-122.174;2022-07-23T01:27:02;28.40;99.90
16305;DHT22;8261;47.678;-122.174;2022-07-23T01:29:34;28.10;99.90
16305;DHT22;8261;47.678;-122.174;2022-07-23T01:32:06;27.70;99.90
16305;DHT22;8261;47.678;-122.174;2022-07-23T01:34:37;27.50;99.90
16305;DHT22;8261;47.678;-122.174;2022-07-23T01:37:25;28.00;99.90
16305;DHT22;8261;47.678;-122.174;2022-07-23T01:40:12;28.10;99.90
16305;DHT22;8261;47.678;-122.174;2022-07-23T01:42:48;27.80;99.90
16305;DHT22;8261;47.678;-122.174;2022-07-23T01:45:19;28.00;99.90
16305;DHT22;8261;47.678;-122.174;2022-07-23T01:47:52;28.20;99.90
16305;DHT22;8261;47.678;-122.174;2022-07-23T01:50:25;28.70;99.90
16305;DHT22;8261;47.678;-122.174;2022-07-23T01:53:00;28.90;99.90
16305;DHT22;8261;47.678;-122.174;2022-07-23T01:55:52;28.70;99.90
16305;DHT22;8261;47.678;-122.174;2022-07-23T01:58:37;28.60;99.90
16305;DHT22;8261;47.678;-122.174;2022-07-23T02:03:46;27.50;99.90
16305;DHT22;8261;47.678;-122.174;2022-07-23T02:06:19;27.90;99.90
16305;DHT22;8261;47.678;-122.174;2022-07-23T02:08:55;27.60;99.90
16305;DHT22;8261;47.678;-122.174;2022-07-23T02:11:31;27.70;99.90
16305;DHT22;8261;47.678;-122.174;2022-07-23T02:14:05;27.20;99.90
16305;DHT22;8261;47.678;-122.174;2022-07-23T02:16:38;26.10;99.90
16305;DHT22;8261;47.678;-122.174;2022-07-23T02:21:59;25.30;99.90
16305;DHT22;8261;47.678;-122.174;2022-07-23T02:24:30;24.80;99.90
16305;DHT22;8261;47.678;-122.174;2022-07-23T02:27:05;24.20;99.90
16305;DHT22;8261;47.678;-122.174;2022-07-23T02:29:38;24.00;99.90
16305;DHT22;8261;47.678;-122.174;2022-07-23T02:32:17;23.80;99.90
16305;DHT22;8261;47.678;-122.174;2022-07-23T02:34:58;23.70;99.90
16305;DHT22;8261;47.678;-122.174;2022-07-23T02:37:30;23.60;99.90
16305;DHT22;8261;47.678;-122.174;2022-07-23T02:40:28;23.40;99.90
16305;DHT22;8261;47.678;-122.174;2022-07-23T02:43:20;23.20;99.90
16305;DHT22;8261;47.678;-122.174;2022-07-23T02:45:54;23.10;99.90
16305;DHT22;8261;47.678;-122.174;2022-07-23T02:48:25;22.90;99.90
16305;DHT22;8261;47.678;-122.174;2022-07-23T02:50:57;22.80;99.90
16305;DHT22;8261;47.678;-122.174;2022-07-23T02:53:28;22.70;99.90
16305;DHT22;8261;47.678;-122.174;2022-07-23T02:56:00;22.50;99.90
16305;DHT22;8261;47.678;-122.174;2022-07-23T02:58:34;22.40;99.90
16305;DHT22;8261;47.678;-122.174;2022-07-23T03:01:06;22.30;99.90
16305;DHT22;8261;47.678;-122.174;2022-07-23T03:03:54;22.20;99.90
16305;DHT22;8261;47.678;-122.174;2022-07-23T03:06:41;22.10;99.90
16305;DHT22;8261;47.678;-122.174;2022-07-23T03:09:22;22.10;99.90
16305;DHT22;8261;47.678;-122.174;2022-07-23T03:11:56;22.00;99.90
16305;DHT22;8261;47.678;-122.174;2022-07-23T03:14:45;21.90;99.90
16305;DHT22;8261;47.678;-122.174;2022-07-23T03:17:16;21.80;99.90
16305;DHT22;8261;47.678;-122.174;2022-07-23T03:19:48;21.70;99.90
16305;DHT22;8261;47.678;-122.174;2022-07-23T03:22:30;21.60;99.90
16305;DHT22;8261;47.678;-122.174;2022-07-23T03:25:02;21.50;99.90
16305;DHT22;8261;47.678;-122.174;2022-07-23T03:27:58;21.50;99.90
16305;DHT22;8261;47.678;-122.174;2022-07-23T03:30:32;21.40;99.90
16305;DHT22;8261;47.678;-122.174;2022-07-23T03:33:04;21.30;99.90
16305;DHT22;8261;47.678;-122.174;2022-07-23T03:35:35;21.20;99.90
16305;DHT22;8261;47.678;-122.174;2022-07-23T03:38:07;21.10;99.90
16305;DHT22;8261;47.678;-122.174;2022-07-23T03:41:07;21.00;99.90
16305;DHT22;8261;47.678;-122.174;2022-07-23T03:43:43;20.90;99.90
16305;DHT22;8261;47.678;-122.174;2022-07-23T03:46:19;20.70;99.90
16305;DHT22;8261;47.678;-122.174;2022-07-23T03:48:51;20.70;99.90
16305;DHT22;8261;47.678;-122.174;2022-07-23T03:51:38;20.60;99.90
16305;DHT22;8261;47.678;-122.174;2022-07-23T03:54:26;20.60;99.90
16305;DHT22;8261;47.678;-122.174;2022-07-23T04:00:09;20.40;99.90
16305;DHT22;8261;47.678;-122.174;2022-07-23T04:05:46;20.20;99.90
16305;DHT22;8261;47.678;-122.174;2022-07-23T04:08:18;20.20;99.90
16305;DHT22;8261;47.678;-122.174;2022-07-23T04:10:55;20.20;99.90
16305;DHT22;8261;47.678;-122.174;2022-07-23T04:13:28;20.10;99.90
16305;DHT22;8261;47.678;-122.174;2022-07-23T04:16:02;20.00;99.90
16305;DHT22;8261;47.678;-122.174;2022-07-23T04:18:50;19.90;99.90
16305;DHT22;8261;47.678;-122.174;2022-07-23T04:21:42;19.80;99.90
16305;DHT22;8261;47.678;-122.174;2022-07-23T04:24:34;19.70;99.90
16305;DHT22;8261;47.678;-122.174;2022-07-23T04:27:08;19.70;99.90
16305;DHT22;8261;47.678;-122.174;2022-07-23T04:30:07;19.70;99.90
16305;DHT22;8261;47.678;-122.174;2022-07-23T04:32:49;19.50;99.90
16305;DHT22;8261;47.678;-122.174;2022-07-23T04:35:46;19.40;99.90
16305;DHT22;8261;47.678;-122.174;2022-07-23T04:38:43;19.40;99.90
16305;DHT22;8261;47.678;-122.174;2022-07-23T04:41:19;19.30;99.90
16305;DHT22;8261;47.678;-122.174;2022-07-23T04:43:53;19.20;99.90
16305;DHT22;8261;47.678;-122.174;2022-07-23T04:46:35;19.20;99.90
16305;DHT22;8261;47.678;-122.174;2022-07-23T04:49:30;19.10;99.90
16305;DHT22;8261;47.678;-122.174;2022-07-23T04:52:15;18.90;99.90
16305;DHT22;8261;47.678;-122.174;2022-07-23T04:54:50;18.90;99.90
16305;DHT22;8261;47.678;-122.174;2022-07-23T04:57:21;18.70;99.90
16305;DHT22;8261;47.678;-122.174;2022-07-23T04:59:54;18.70;99.90
16305;DHT22;8261;47.678;-122.174;2022-07-23T05:02:25;18.60;99.90
16305;DHT22;8261;47.678;-122.174;2022-07-23T05:04:57;18.50;99.90
16305;DHT22;8261;47.678;-122.174;2022-07-23T05:07:28;18.50;99.90
16305;DHT22;8261;47.678;-122.174;2022-07-23T05:10:02;18.40;99.90
16305;DHT22;8261;47.678;-122.174;2022-07-23T05:12:34;18.30;99.90
16305;DHT22;8261;47.678;-122.174;2022-07-23T05:15:07;18.20;99.90
16305;DHT22;8261;47.678;-122.174;2022-07-23T05:17:41;18.20;99.90
16305;DHT22;8261;47.678;-122.174;2022-07-23T05:20:13;18.10;99.90
16305;DHT22;8261;47.678;-122.174;2022-07-23T05:22:44;18.10;99.90
16305;DHT22;8261;47.678;-122.174;2022-07-23T05:25:18;18.00;99.90
16305;DHT22;8261;47.678;-122.174;2022-07-23T05:27:49;17.90;99.90
16305;DHT22;8261;47.678;-122.174;2022-07-23T05:30:21;17.80;99.90
16305;DHT22;8261;47.678;-122.174;2022-07-23T05:32:53;17.70;99.90
16305;DHT22;8261;47.678;-122.174;2022-07-23T05:35:24;17.60;99.90
16305;DHT22;8261;47.678;-122.174;2022-07-23T05:37:56;17.50;99.90
16305;DHT22;8261;47.678;-122.174;2022-07-23T05:40:29;17.40;99.90
16305;DHT22;8261;47.678;-122.174;2022-07-23T05:43:02;17.40;99.90
16305;DHT22;8261;47.678;-122.174;2022-07-23T05:45:33;17.30;99.90
16305;DHT22;8261;47.678;-122.174;2022-07-23T05:48:05;17.20;99.90
16305;DHT22;8261;47.678;-122.174;2022-07-23T05:50:36;17.20;99.90
16305;DHT22;8261;47.678;-122.174;2022-07-23T05:53:07;17.00;99.90
16305;DHT22;8261;47.678;-122.174;2022-07-23T05:56:02;16.90;99.90
16305;DHT22;8261;47.678;-122.174;2022-07-23T05:58:56;16.90;99.90
16305;DHT22;8261;47.678;-122.174;2022-07-23T06:01:27;16.80;99.90
16305;DHT22;8261;47.678;-122.174;2022-07-23T06:03:59;16.70;99.90
16305;DHT22;8261;47.678;-122.174;2022-07-23T06:06:34;16.50;99.90
16305;DHT22;8261;47.678;-122.174;2022-07-23T06:09:15;16.50;99.90
16305;DHT22;8261;47.678;-122.174;2022-07-23T06:11:50;16.40;99.90
16305;DHT22;8261;47.678;-122.174;2022-07-23T06:14:23;16.30;99.90
16305;DHT22;8261;47.678;-122.174;2022-07-23T06:16:56;16.30;99.90
16305;DHT22;8261;47.678;-122.174;2022-07-23T06:19:42;16.20;99.90
16305;DHT22;8261;47.678;-122.174;2022-07-23T06:22:13;16.20;99.90
16305;DHT22;8261;47.678;-122.174;2022-07-23T06:24:49;16.00;99.90
16305;DHT22;8261;47.678;-122.174;2022-07-23T06:27:26;16.00;99.90
16305;DHT22;8261;47.678;-122.174;2022-07-23T06:30:13;15.90;99.90
16305;DHT22;8261;47.678;-122.174;2022-07-23T06:32:49;15.80;99.90
16305;DHT22;8261;47.678;-122.174;2022-07-23T06:35:29;15.80;99.90
16305;DHT22;8261;47.678;-122.174;2022-07-23T06:38:02;15.60;99.90
16305;DHT22;8261;47.678;-122.174;2022-07-23T06:40:34;15.60;99.90
16305;DHT22;8261;47.678;-122.174;2022-07-23T06:43:34;15.50;99.90
16305;DHT22;8261;47.678;-122.174;2022-07-23T06:46:06;15.50;99.90
16305;DHT22;8261;47.678;-122.174;2022-07-23T06:48:38;15.50;99.90
16305;DHT22;8261;47.678;-122.174;2022-07-23T06:51:10;15.40;99.90
16305;DHT22;8261;47.678;-122.174;2022-07-23T06:53:42;15.40;99.90
16305;DHT22;8261;47.678;-122.174;2022-07-23T06:56:17;15.30;99.90
16305;DHT22;8261;47.678;-122.174;2022-07-23T06:58:52;15.30;99.90
16305;DHT22;8261;47.678;-122.174;2022-07-23T07:01:25;15.20;99.90
16305;DHT22;8261;47.678;-122.174;2022-07-23T07:03:57;15.20;99.90
16305;DHT22;8261;47.678;-122.174;2022-07-23T07:06:29;15.20;99.90
16305;DHT22;8261;47.678;-122.174;2022-07-23T07:09:00;15.10;99.90
16305;DHT22;8261;47.678;-122.174;2022-07-23T07:11:46;15.10;99.90
16305;DHT22;8261;47.678;-122.174;2022-07-23T07:14:37;15.20;99.90
16305;DHT22;8261;47.678;-122.174;2022-07-23T07:17:34;15.00;99.90
16305;DHT22;8261;47.678;-122.174;2022-07-23T07:20:09;15.00;99.90
16305;DHT22;8261;47.678;-122.174;2022-07-23T07:22:42;15.00;99.90
16305;DHT22;8261;47.678;-122.174;2022-07-23T07:25:14;15.00;99.90
16305;DHT22;8261;47.678;-122.174;2022-07-23T07:27:46;14.90;99.90
16305;DHT22;8261;47.678;-122.174;2022-07-23T07:30:20;14.90;99.90
16305;DHT22;8261;47.678;-122.174;2022-07-23T07:32:58;14.80;99.90
16305;DHT22;8261;47.678;-122.174;2022-07-23T07:35:31;14.80;99.90
16305;DHT22;8261;47.678;-122.174;2022-07-23T07:38:03;14.80;99.90
16305;DHT22;8261;47.678;-122.174;2022-07-23T07:40:37;14.80;99.90
16305;DHT22;8261;47.678;-122.174;2022-07-23T07:43:08;14.80;99.90
16305;DHT22;8261;47.678;-122.174;2022-07-23T07:45:43;14.70;99.90
16305;DHT22;8261;47.678;-122.174;2022-07-23T07:48:15;14.70;99.90
16305;DHT22;8261;47.678;-122.174;2022-07-23T07:50:47;14.70;99.90
16305;DHT22;8261;47.678;-122.174;2022-07-23T07:53:20;14.70;99.90
16305;DHT22;8261;47.678;-122.174;2022-07-23T07:55:54;14.60;99.90
16305;DHT22;8261;47.678;-122.174;2022-07-23T07:58:26;14.50;99.90
16305;DHT22;8261;47.678;-122.174;2022-07-23T08:01:01;14.60;99.90
16305;DHT22;8261;47.678;-122.174;2022-07-23T08:03:34;14.50;99.90
16305;DHT22;8261;47.678;-122.174;2022-07-23T08:06:07;14.60;99.90
16305;DHT22;8261;47.678;-122.174;2022-07-23T08:08:52;14.60;99.90
16305;DHT22;8261;47.678;-122.174;2022-07-23T08:11:24;14.60;99.90
16305;DHT22;8261;47.678;-122.174;2022-07-23T08:13:57;14.60;99.90
16305;DHT22;8261;47.678;-122.174;2022-07-23T08:16:42;14.60;99.90
16305;DHT22;8261;47.678;-122.174;2022-07-23T08:19:42;14.60;99.90
16305;DHT22;8261;47.678;-122.174;2022-07-23T08:22:14;14.60;99.90
16305;DHT22;8261;47.678;-122.174;2022-07-23T08:24:47;14.60;99.90
16305;DHT22;8261;47.678;-122.174;2022-07-23T08:27:20;14.70;99.90
16305;DHT22;8261;47.678;-122.174;2022-07-23T08:29:52;14.70;99.90
16305;DHT22;8261;47.678;-122.174;2022-07-23T08:32:27;14.80;99.90
16305;DHT22;8261;47.678;-122.174;2022-07-23T08:35:12;14.80;99.90
16305;DHT22;8261;47.678;-122.174;2022-07-23T08:37:44;14.70;99.90
16305;DHT22;8261;47.678;-122.174;2022-07-23T08:40:17;14.70;99.90
16305;DHT22;8261;47.678;-122.174;2022-07-23T08:42:51;14.70;99.90
16305;DHT22;8261;47.678;-122.174;2022-07-23T08:45:26;14.70;99.90
16305;DHT22;8261;47.678;-122.174;2022-07-23T08:47:59;14.70;99.90
16305;DHT22;8261;47.678;-122.174;2022-07-23T08:50:33;14.70;99.90
16305;DHT22;8261;47.678;-122.174;2022-07-23T08:53:09;14.80;99.90
16305;DHT22;8261;47.678;-122.174;2022-07-23T08:55:43;14.80;99.90
16305;DHT22;8261;47.678;-122.174;2022-07-23T08:58:17;14.80;99.90
16305;DHT22;8261;47.678;-122.174;2022-07-23T09:00:55;14.80;99.90
16305;DHT22;8261;47.678;-122.174;2022-07-23T09:03:31;14.80;99.90
16305;DHT22;8261;47.678;-122.174;2022-07-23T09:06:03;14.90;99.90
16305;DHT22;8261;47.678;-122.174;2022-07-23T09:08:36;14.80;99.90
16305;DHT22;8261;47.678;-122.174;2022-07-23T09:11:09;14.90;99.90
16305;DHT22;8261;47.678;-122.174;2022-07-23T09:13:47;14.90;99.90
16305;DHT22;8261;47.678;-122.174;2022-07-23T09:16:23;14.90;99.90
16305;DHT22;8261;47.678;-122.174;2022-07-23T09:19:01;14.80;99.90
16305;DHT22;8261;47.678;-122.174;2022-07-23T09:21:34;14.80;99.90
16305;DHT22;8261;47.678;-122.174;2022-07-23T09:24:06;14.80;99.90
16305;DHT22;8261;47.678;-122.174;2022-07-23T09:26:40;14.80;99.90
16305;DHT22;8261;47.678;-122.174;2022-07-23T09:29:16;14.80;99.90
16305;DHT22;8261;47.678;-122.174;2022-07-23T09:31:50;14.80;99.90
16305;DHT22;8261;47.678;-122.174;2022-07-23T09:34:24;14.80;99.90
16305;DHT22;8261;47.678;-122.174;2022-07-23T09:36:58;14.70;99.90
16305;DHT22;8261;47.678;-122.174;2022-07-23T09:39:31;14.70;99.90
16305;DHT22;8261;47.678;-122.174;2022-07-23T09:42:14;14.70;99.90
16305;DHT22;8261;47.678;-122.174;2022-07-23T09:44:47;14.70;99.90
16305;DHT22;8261;47.678;-122.174;2022-07-23T09:47:18;14.70;99.90
16305;DHT22;8261;47.678;-122.174;2022-07-23T09:50:00;14.70;99.90
16305;DHT22;8261;47.678;-122.174;2022-07-23T09:52:34;14.70;99.90
16305;DHT22;8261;47.678;-122.174;2022-07-23T09:55:06;14.70;99.90
16305;DHT22;8261;47.678;-122.174;2022-07-23T09:57:38;14.80;99.90
16305;DHT22;8261;47.678;-122.174;2022-07-23T10:00:12;14.80;99.90
16305;DHT22;8261;47.678;-122.174;2022-07-23T10:02:46;14.80;99.90
16305;DHT22;8261;47.678;-122.174;2022-07-23T10:05:22;14.70;99.90
16305;DHT22;8261;47.678;-122.174;2022-07-23T10:07:55;14.70;99.90
16305;DHT22;8261;47.678;-122.174;2022-07-23T10:10:27;14.70;99.90
16305;DHT22;8261;47.678;-122.174;2022-07-23T10:12:59;14.60;99.90
16305;DHT22;8261;47.678;-122.174;2022-07-23T10:15:51;14.70;99.90
16305;DHT22;8261;47.678;-122.174;2022-07-23T10:18:23;14.60;99.90
16305;DHT22;8261;47.678;-122.174;2022-07-23T10:20:57;14.60;99.90
16305;DHT22;8261;47.678;-122.174;2022-07-23T10:23:33;14.60;99.90
16305;DHT22;8261;47.678;-122.174;2022-07-23T10:26:10;14.60;99.90
16305;DHT22;8261;47.678;-122.174;2022-07-23T10:29:02;14.60;99.90
16305;DHT22;8261;47.678;-122.174;2022-07-23T10:31:46;14.60;99.90
16305;DHT22;8261;47.678;-122.174;2022-07-23T10:34:37;14.60;99.90
16305;DHT22;8261;47.678;-122.174;2022-07-23T10:37:22;14.50;99.90
16305;DHT22;8261;47.678;-122.174;2022-07-23T10:40:14;14.50;99.90
16305;DHT22;8261;47.678;-122.174;2022-07-23T10:42:46;14.50;99.90
16305;DHT22;8261;47.678;-122.174;2022-07-23T10:45:28;14.50;99.90
16305;DHT22;8261;47.678;-122.174;2022-07-23T10:48:14;14.50;99.90
16305;DHT22;8261;47.678;-122.174;2022-07-23T10:51:07;14.50;99.90
16305;DHT22;8261;47.678;-122.174;2022-07-23T10:53:57;14.50;99.90
16305;DHT22;8261;47.678;-122.174;2022-07-23T10:57:05;14.50;99.90
16305;DHT22;8261;47.678;-122.174;2022-07-23T11:02:47;14.50;99.90
16305;DHT22;8261;47.678;-122.174;2022-07-23T11:05:20;14.50;99.90
16305;DHT22;8261;47.678;-122.174;2022-07-23T11:08:16;14.50;99.90
16305;DHT22;8261;47.678;-122.174;2022-07-23T11:10:54;14.50;99.90
16305;DHT22;8261;47.678;-122.174;2022-07-23T11:13:30;14.50;99.90
16305;DHT22;8261;47.678;-122.174;2022-07-23T11:16:17;14.50;99.90
16305;DHT22;8261;47.678;-122.174;2022-07-23T11:19:15;14.40;99.90
16305;DHT22;8261;47.678;-122.174;2022-07-23T11:21:50;14.50;99.90
16305;DHT22;8261;47.678;-122.174;2022-07-23T11:24:23;14.50;99.90
16305;DHT22;8261;47.678;-122.174;2022-07-23T11:27:00;14.50;99.90
16305;DHT22;8261;47.678;-122.174;2022-07-23T11:29:49;14.50;99.90
16305;DHT22;8261;47.678;-122.174;2022-07-23T11:32:35;14.50;99.90
16305;DHT22;8261;47.678;-122.174;2022-07-23T11:35:21;14.50;99.90
16305;DHT22;8261;47.678;-122.174;2022-07-23T11:38:04;14.50;99.90
16305;DHT22;8261;47.678;-122.174;2022-07-23T11:40:37;14.40;99.90
16305;DHT22;8261;47.678;-122.174;2022-07-23T11:43:15;14.40;99.90
16305;DHT22;8261;47.678;-122.174;2022-07-23T11:45:49;14.30;99.90
16305;DHT22;8261;47.678;-122.174;2022-07-23T11:48:22;14.40;99.90
16305;DHT22;8261;47.678;-122.174;2022-07-23T11:50:56;14.40;99.90
16305;DHT22;8261;47.678;-122.174;2022-07-23T11:53:32;14.40;99.90
16305;DHT22;8261;47.678;-122.174;2022-07-23T11:56:05;14.50;99.90
16305;DHT22;8261;47.678;-122.174;2022-07-23T11:58:39;14.50;99.90
16305;DHT22;8261;47.678;-122.174;2022-07-23T12:01:27;14.40;99.90
16305;DHT22;8261;47.678;-122.174;2022-07-23T12:04:01;14.40;99.90
16305;DHT22;8261;47.678;-122.174;2022-07-23T12:06:38;14.40;99.90
16305;DHT22;8261;47.678;-122.174;2022-07-23T12:09:11;14.40;99.90
16305;DHT22;8261;47.678;-122.174;2022-07-23T12:11:57;14.40;99.90
16305;DHT22;8261;47.678;-122.174;2022-07-23T12:14:35;14.40;99.90
16305;DHT22;8261;47.678;-122.174;2022-07-23T12:17:18;14.40;99.90
16305;DHT22;8261;47.678;-122.174;2022-07-23T12:19:50;14.40;99.90
16305;DHT22;8261;47.678;-122.174;2022-07-23T12:22:23;14.40;99.90
16305;DHT22;8261;47.678;-122.174;2022-07-23T12:24:59;14.30;99.90
16305;DHT22;8261;47.678;-122.174;2022-07-23T12:27:31;14.30;99.90
16305;DHT22;8261;47.678;-122.174;2022-07-23T12:30:21;14.20;99.90
16305;DHT22;8261;47.678;-122.174;2022-07-23T12:33:01;14.10;99.90
16305;DHT22;8261;47.678;-122.174;2022-07-23T12:35:37;14.20;99.90
16305;DHT22;8261;47.678;-122.174;2022-07-23T12:38:11;14.20;99.90
16305;DHT22;8261;47.678;-122.174;2022-07-23T12:40:44;14.10;99.90
16305;DHT22;8261;47.678;-122.174;2022-07-23T12:43:20;14.10;99.90
16305;DHT22;8261;47.678;-122.174;2022-07-23T12:46:00;14.10;99.90
16305;DHT22;8261;47.678;-122.174;2022-07-23T12:48:34;14.20;99.90
16305;DHT22;8261;47.678;-122.174;2022-07-23T12:51:08;14.30;99.90
16305;DHT22;8261;47.678;-122.174;2022-07-23T12:53:50;14.30;99.90
16305;DHT22;8261;47.678;-122.174;2022-07-23T12:56:27;14.30;99.90
16305;DHT22;8261;47.678;-122.174;2022-07-23T12:59:07;14.30;99.90
16305;DHT22;8261;47.678;-122.174;2022-07-23T13:01:44;14.40;99.90
16305;DHT22;8261;47.678;-122.174;2022-07-23T13:04:19;14.30;99.90
16305;DHT22;8261;47.678;-122.174;2022-07-23T13:06:53;14.30;99.90
16305;DHT22;8261;47.678;-122.174;2022-07-23T13:09:28;14.30;99.90
16305;DHT22;8261;47.678;-122.174;2022-07-23T13:12:04;14.30;99.90
16305;DHT22;8261;47.678;-122.174;2022-07-23T13:14:38;14.30;99.90
16305;DHT22;8261;47.678;-122.174;2022-07-23T13:17:16;14.30;99.90
16305;DHT22;8261;47.678;-122.174;2022-07-23T13:19:47;14.30;99.90
16305;DHT22;8261;47.678;-122.174;2022-07-23T13:22:18;14.40;99.90
16305;DHT22;8261;47.678;-122.174;2022-07-23T13:24:50;14.40;99.90
16305;DHT22;8261;47.678;-122.174;2022-07-23T13:27:21;14.40;99.90
16305;DHT22;8261;47.678;-122.174;2022-07-23T13:29:54;14.40;99.90
16305;DHT22;8261;47.678;-122.174;2022-07-23T13:32:28;14.40;99.90
16305;DHT22;8261;47.678;-122.174;2022-07-23T13:35:00;14.40;99.90
16305;DHT22;8261;47.678;-122.174;2022-07-23T13:37:31;14.40;99.90
16305;DHT22;8261;47.678;-122.174;2022-07-23T13:40:03;14.50;99.90
16305;DHT22;8261;47.678;-122.174;2022-07-23T13:42:45;14.50;99.90
16305;DHT22;8261;47.678;-122.174;2022-07-23T13:45:16;14.60;99.90
16305;DHT22;8261;47.678;-122.174;2022-07-23T13:47:49;14.50;99.90
16305;DHT22;8261;47.678;-122.174;2022-07-23T13:50:21;14.50;99.90
16305;DHT22;8261;47.678;-122.174;2022-07-23T13:53:02;14.50;99.90
16305;DHT22;8261;47.678;-122.174;2022-07-23T13:55:34;14.60;99.90
16305;DHT22;8261;47.678;-122.174;2022-07-23T13:58:07;14.60;99.90
16305;DHT22;8261;47.678;-122.174;2022-07-23T14:00:43;14.60;99.90
16305;DHT22;8261;47.678;-122.174;2022-07-23T14:03:22;14.60;99.90
16305;DHT22;8261;47.678;-122.174;2022-07-23T14:05:54;14.70;99.90
16305;DHT22;8261;47.678;-122.174;2022-07-23T14:08:26;14.70;99.90
16305;DHT22;8261;47.678;-122.174;2022-07-23T14:10:59;14.60;99.90
16305;DHT22;8261;47.678;-122.174;2022-07-23T14:13:34;14.70;99.90
16305;DHT22;8261;47.678;-122.174;2022-07-23T14:16:08;14.70;99.90
16305;DHT22;8261;47.678;-122.174;2022-07-23T14:18:42;14.70;99.90
16305;DHT22;8261;47.678;-122.174;2022-07-23T14:21:14;14.70;99.90
16305;DHT22;8261;47.678;-122.174;2022-07-23T14:23:46;14.80;99.90
16305;DHT22;8261;47.678;-122.174;2022-07-23T14:26:19;14.80;99.90
16305;DHT22;8261;47.678;-122.174;2022-07-23T14:28:50;14.80;99.90
16305;DHT22;8261;47.678;-122.174;2022-07-23T14:31:21;14.80;99.90
16305;DHT22;8261;47.678;-122.174;2022-07-23T14:33:55;14.90;99.90
16305;DHT22;8261;47.678;-122.174;2022-07-23T14:36:34;14.90;99.90
16305;DHT22;8261;47.678;-122.174;2022-07-23T14:39:06;14.90;99.90
16305;DHT22;8261;47.678;-122.174;2022-07-23T14:41:39;15.00;99.90
16305;DHT22;8261;47.678;-122.174;2022-07-23T14:44:11;15.00;99.90
16305;DHT22;8261;47.678;-122.174;2022-07-23T14:46:42;15.10;99.90
16305;DHT22;8261;47.678;-122.174;2022-07-23T14:49:16;15.10;99.90
16305;DHT22;8261;47.678;-122.174;2022-07-23T14:51:47;15.10;99.90
16305;DHT22;8261;47.678;-122.174;2022-07-23T14:54:19;15.10;99.90
16305;DHT22;8261;47.678;-122.174;2022-07-23T14:56:50;15.20;99.90
16305;DHT22;8261;47.678;-122.174;2022-07-23T14:59:21;15.20;99.90
16305;DHT22;8261;47.678;-122.174;2022-07-23T15:01:53;15.20;99.90
16305;DHT22;8261;47.678;-122.174;2022-07-23T15:04:26;15.20;99.90
16305;DHT22;8261;47.678;-122.174;2022-07-23T15:07:05;15.30;99.90
16305;DHT22;8261;47.678;-122.174;2022-07-23T15:09:38;15.30;99.90
16305;DHT22;8261;47.678;-122.174;2022-07-23T15:12:09;15.50;99.90
16305;DHT22;8261;47.678;-122.174;2022-07-23T15:14:40;15.60;99.90
16305;DHT22;8261;47.678;-122.174;2022-07-23T15:17:12;15.70;99.90
16305;DHT22;8261;47.678;-122.174;2022-07-23T15:19:45;15.60;99.90
16305;DHT22;8261;47.678;-122.174;2022-07-23T15:22:17;15.70;99.90
16305;DHT22;8261;47.678;-122.174;2022-07-23T15:24:50;15.70;99.90
16305;DHT22;8261;47.678;-122.174;2022-07-23T15:27:24;15.70;99.90
16305;DHT22;8261;47.678;-122.174;2022-07-23T15:29:57;15.70;99.90
16305;DHT22;8261;47.678;-122.174;2022-07-23T15:32:29;15.80;99.90
16305;DHT22;8261;47.678;-122.174;2022-07-23T15:48:28;15.90;99.90
16305;DHT22;8261;47.678;-122.174;2022-07-23T15:51:02;16.30;99.90
16305;DHT22;8261;47.678;-122.174;2022-07-23T15:53:36;16.30;99.90
16305;DHT22;8261;47.678;-122.174;2022-07-23T15:56:12;16.40;99.90
16305;DHT22;8261;47.678;-122.174;2022-07-23T15:58:57;16.50;99.90
16305;DHT22;8261;47.678;-122.174;2022-07-23T16:01:41;16.50;99.90
16305;DHT22;8261;47.678;-122.174;2022-07-23T16:14:20;17.10;99.90
16305;DHT22;8261;47.678;-122.174;2022-07-23T16:17:19;17.00;99.90
16305;DHT22;8261;47.678;-122.174;2022-07-23T16:19:58;16.90;99.90
16305;DHT22;8261;47.678;-122.174;2022-07-23T16:22:32;17.00;99.90
16305;DHT22;8261;47.678;-122.174;2022-07-23T16:25:22;17.00;99.90
16305;DHT22;8261;47.678;-122.174;2022-07-23T16:28:19;17.10;99.90
16305;DHT22;8261;47.678;-122.174;2022-07-23T16:31:20;17.20;99.90
16305;DHT22;8261;47.678;-122.174;2022-07-23T16:33:51;17.20;99.90
16305;DHT22;8261;47.678;-122.174;2022-07-23T16:36:22;17.50;99.90
16305;DHT22;8261;47.678;-122.174;2022-07-23T16:38:54;17.60;99.90
16305;DHT22;8261;47.678;-122.174;2022-07-23T16:41:33;17.20;99.90
16305;DHT22;8261;47.678;-122.174;2022-07-23T16:44:04;17.10;99.90